Time;durP1;ratioP1;P1;durP2;ratioP2;P2;SDS_P1;SDS_P2;PMS_P1;PMS_P2;Temp;Humidity;BMP_temperature;BMP_pressure;BME280_temperature;BME280_humidity;BME280_pressure;Samples;Min_cycle;Max_cycle;Signal;HPM_P1;HPM_P2
2023/07/04 00:00:46;;;;;;;;;;;20.40;75.30;;;-151.14;100.00;62537.16;5092196;28;19920;-84
2023/07/04 00:03:14;;;;;;;;;;;20.30;75.40;;;-151.14;100.00;62537.16;5091143;28;19921;-84
2023/07/04 00:05:49;;;;;;;;;;;20.30;75.40;;;-151.14;100.00;62537.16;5075325;28;19920;-84
2023/07/04 00:08:16;;;;;;;;;;;20.40;75.30;;;-151.14;100.00;62537.16;5108641;28;19921;-84
2023/07/04 00:10:44;;;;;;;;;;;20.30;75.20;;;-151.14;100.00;62537.16;5093047;28;19920;-84
2023/07/04 00:13:12;;;;;;;;;;;20.30;75.10;;;-151.14;100.00;62537.16;5074237;28;19920;-84
2023/07/04 00:15:45;;;;;;;;;;;20.30;75.20;;;-151.14;100.00;62537.16;5092931;28;20120;-84
2023/07/04 00:18:14;;;;;;;;;;;20.30;75.20;;;-151.14;100.00;62537.16;5108623;28;19920;-84
2023/07/04 00:20:42;;;;;;;;;;;20.30;75.30;;;-151.14;100.00;62537.16;5092949;28;20112;-84
2023/07/04 00:23:11;;;;;;;;;;;20.30;75.30;;;-151.14;100.00;62537.16;5090865;28;19926;-85
2023/07/04 00:25:39;;;;;;;;;;;20.40;75.20;;;-151.14;100.00;62537.16;5074684;28;19943;-84
2023/07/04 00:28:07;;;;;;;;;;;20.30;75.20;;;-151.14;100.00;62537.16;5074530;28;19927;-84
2023/07/04 00:30:35;;;;;;;;;;;20.30;75.20;;;-151.14;100.00;62537.16;5074532;28;19920;-84
2023/07/04 00:33:04;;;;;;;;;;;20.30;75.20;;;-151.14;100.00;62537.16;5090705;28;19927;-84
2023/07/04 00:35:32;;;;;;;;;;;20.30;75.20;;;-151.14;100.00;62537.16;5074482;28;19920;-84
2023/07/04 00:38:00;;;;;;;;;;;20.30;75.20;;;-151.14;100.00;62537.16;5074471;28;20116;-84
2023/07/04 00:40:29;;;;;;;;;;;20.30;75.20;;;-151.14;100.00;62537.16;5091176;28;19926;-83
2023/07/04 00:43:02;;;;;;;;;;;20.30;75.20;;;-151.14;100.00;62537.16;5090747;28;20097;-84
2023/07/04 00:45:31;;;;;;;;;;;20.30;75.20;;;-151.14;100.00;62537.16;5091281;28;19924;-84
2023/07/04 00:48:00;;;;;;;;;;;20.30;75.00;;;-151.14;100.00;62537.16;5074337;28;19927;-84
2023/07/04 00:50:29;;;;;;;;;;;20.30;75.00;;;-151.14;100.00;62537.16;5074249;28;19920;-84
2023/07/04 00:52:57;;;;;;;;;;;20.30;74.80;;;-151.14;100.00;62537.16;5091546;28;19927;-84
2023/07/04 00:55:26;;;;;;;;;;;20.30;74.80;;;-151.14;100.00;62537.16;5107798;28;20212;-84
2023/07/04 00:57:55;;;;;;;;;;;20.30;74.80;;;-151.14;100.00;62537.16;5091082;28;19921;-84
2023/07/04 01:00:24;;;;;;;;;;;20.30;74.80;;;-151.14;100.00;62537.16;5074267;28;19926;-84
2023/07/04 01:03:03;;;;;;;;;;;20.30;74.80;;;-151.14;100.00;62537.16;5073604;28;19920;-84
2023/07/04 01:05:33;;;;;;;;;;;20.30;74.70;;;-151.14;100.00;62537.16;5091008;28;19924;-84
2023/07/04 01:08:03;;;;;;;;;;;20.30;74.70;;;-151.14;100.00;62537.16;5073999;28;19926;-84
2023/07/04 01:10:33;;;;;;;;;;;20.30;74.60;;;-151.14;100.00;62537.16;5090597;28;19920;-84
2023/07/04 01:13:03;;;;;;;;;;;20.20;74.40;;;-151.14;100.00;62537.16;5090442;28;19920;-84
2023/07/04 01:15:30;;;;;;;;;;;20.20;74.40;;;-151.14;100.00;62537.16;5090702;28;20017;-84
2023/07/04 01:17:58;;;;;;;;;;;20.20;74.20;;;-151.14;100.00;62537.16;5091882;28;19935;-84
2023/07/04 01:20:26;;;;;;;;;;;20.20;74.20;;;-151.14;100.00;62537.16;5090615;28;19946;-84
2023/07/04 01:22:59;;;;;;;;;;;20.20;74.20;;;-151.14;100.00;62537.16;5090127;28;19920;-84
2023/07/04 01:25:31;;;;;;;;;;;20.20;74.30;;;-151.14;100.00;62537.16;5090484;28;19927;-84
2023/07/04 01:28:02;;;;;;;;;;;20.20;74.40;;;-151.14;100.00;62537.16;5073970;28;20120;-84
2023/07/04 01:30:33;;;;;;;;;;;20.20;74.30;;;-151.14;100.00;62537.16;5073672;28;19926;-84
2023/07/04 01:33:01;;;;;;;;;;;20.20;74.20;;;-151.14;100.00;62537.16;5091124;28;19927;-84
2023/07/04 01:35:29;;;;;;;;;;;20.20;74.20;;;-151.14;100.00;62537.16;5073582;28;19927;-83
2023/07/04 01:37:59;;;;;;;;;;;20.20;74.10;;;-151.14;100.00;62537.16;5073763;28;19920;-84
2023/07/04 01:40:27;;;;;;;;;;;20.20;74.20;;;-151.14;100.00;62537.16;5073528;28;19921;-84
2023/07/04 01:42:55;;;;;;;;;;;20.20;74.10;;;-151.14;100.00;62537.16;5089929;28;19920;-84
2023/07/04 01:45:24;;;;;;;;;;;20.20;74.00;;;-151.14;100.00;62537.16;5073609;28;19920;-84
2023/07/04 01:47:52;;;;;;;;;;;20.10;73.90;;;-151.14;100.00;62537.16;5073757;28;19942;-84
2023/07/04 01:50:21;;;;;;;;;;;20.10;73.90;;;-151.14;100.00;62537.16;5091208;28;19927;-84
2023/07/04 01:52:50;;;;;;;;;;;20.10;73.90;;;-151.14;100.00;62537.16;5089787;28;19926;-84
2023/07/04 01:55:18;;;;;;;;;;;20.10;73.90;;;-151.14;100.00;62537.16;5106863;28;20158;-84
2023/07/04 01:57:46;;;;;;;;;;;20.10;73.90;;;-151.14;100.00;62537.16;5090175;28;19934;-85
2023/07/04 02:00:14;;;;;;;;;;;20.10;74.00;;;-151.14;100.00;62537.16;5073553;28;20208;-84
2023/07/04 02:02:58;;;;;;;;;;;20.10;73.90;;;-151.14;100.00;62537.16;5090776;28;19924;-83
2023/07/04 02:05:26;;;;;;;;;;;20.10;74.00;;;-151.14;100.00;62537.16;5072835;28;20090;-83
2023/07/04 02:07:54;;;;;;;;;;;20.10;74.10;;;-151.14;100.00;62537.16;5091426;28;19989;-83
2023/07/04 02:10:22;;;;;;;;;;;20.10;74.10;;;-151.14;100.00;62537.16;5090932;28;19920;-83
2023/07/04 02:12:50;;;;;;;;;;;20.10;73.90;;;-151.14;100.00;62537.16;5089960;28;19920;-83
2023/07/04 02:15:18;;;;;;;;;;;20.10;73.90;;;-151.14;100.00;62537.16;5072868;28;19920;-83
2023/07/04 02:17:47;;;;;;;;;;;20.10;73.70;;;-151.14;100.00;62537.16;5090076;28;19926;-83
2023/07/04 02:20:17;;;;;;;;;;;20.10;73.60;;;-151.14;100.00;62537.16;5089907;28;19942;-83
2023/07/04 02:22:45;;;;;;;;;;;20.10;73.60;;;-151.14;100.00;62537.16;5083610;28;19920;-83
2023/07/04 02:25:13;;;;;;;;;;;20.10;73.60;;;-151.14;100.00;62537.16;5089960;28;19920;-83
2023/07/04 02:27:41;;;;;;;;;;;20.10;73.60;;;-151.14;100.00;62537.16;5089962;28;19927;-83
2023/07/04 02:30:10;;;;;;;;;;;20.10;73.40;;;-151.14;100.00;62537.16;5089744;28;19927;-83
2023/07/04 02:32:38;;;;;;;;;;;20.10;73.50;;;-151.14;100.00;62537.16;5090805;28;19920;-83
2023/07/04 02:35:08;;;;;;;;;;;20.10;73.50;;;-151.14;100.00;62537.16;5072913;28;20107;-82
2023/07/04 02:37:40;;;;;;;;;;;20.10;73.50;;;-151.14;100.00;62537.16;5089925;28;19934;-83
2023/07/04 02:40:09;;;;;;;;;;;20.10;73.60;;;-151.14;100.00;62537.16;5089617;28;19942;-83
2023/07/04 02:42:37;;;;;;;;;;;20.10;73.60;;;-151.14;100.00;62537.16;5089556;28;19926;-83
2023/07/04 02:45:06;;;;;;;;;;;20.10;73.70;;;-151.14;100.00;62537.16;5072536;28;19920;-83
2023/07/04 02:47:35;;;;;;;;;;;20.10;73.80;;;-151.14;100.00;62537.16;5088980;28;20116;-83
2023/07/04 02:50:06;;;;;;;;;;;20.10;73.70;;;-151.14;100.00;62537.16;5088962;28;19927;-83
2023/07/04 02:52:34;;;;;;;;;;;20.00;73.50;;;-151.14;100.00;62537.16;5105988;28;19920;-84
2023/07/04 02:55:04;;;;;;;;;;;20.00;73.30;;;-151.14;100.00;62537.16;5072545;28;19920;-84
2023/07/04 02:57:32;;;;;;;;;;;20.00;73.30;;;-151.14;100.00;62537.16;5089559;28;19920;-84
2023/07/04 03:00:00;;;;;;;;;;;20.00;73.20;;;-151.14;100.00;62537.16;5089357;28;19927;-84
2023/07/04 03:02:30;;;;;;;;;;;20.00;73.20;;;-151.14;100.00;62537.16;5105919;28;19944;-84
2023/07/04 03:04:59;;;;;;;;;;;20.00;73.10;;;-151.14;100.00;62537.16;5089226;28;19920;-84
2023/07/04 03:07:29;;;;;;;;;;;20.00;73.10;;;-151.14;100.00;62537.16;5072526;28;19927;-84
2023/07/04 03:09:59;;;;;;;;;;;20.00;73.20;;;-151.14;100.00;62537.16;5072148;28;19920;-84
2023/07/04 03:12:31;;;;;;;;;;;20.00;73.20;;;-151.14;100.00;62537.16;5071971;28;19920;-84
2023/07/04 03:15:00;;;;;;;;;;;20.00;73.20;;;-151.14;100.00;62537.16;5089287;28;20235;-84
2023/07/04 03:17:30;;;;;;;;;;;20.00;73.10;;;-151.14;100.00;62537.16;5075746;28;20120;-84
2023/07/04 03:19:59;;;;;;;;;;;20.00;73.20;;;-151.14;100.00;62537.16;5092734;28;19921;-84
2023/07/04 03:22:28;;;;;;;;;;;20.00;73.20;;;-151.14;100.00;62537.16;5091982;28;19920;-84
2023/07/04 03:24:56;;;;;;;;;;;20.00;73.10;;;-151.14;100.00;62537.16;5092421;28;19921;-84
2023/07/04 03:27:25;;;;;;;;;;;20.00;73.20;;;-151.14;100.00;62537.16;5092391;28;20089;-83
2023/07/04 03:29:54;;;;;;;;;;;20.00;73.30;;;-151.14;100.00;62537.16;5092542;28;20119;-83
2023/07/04 03:32:23;;;;;;;;;;;20.00;73.40;;;-151.14;100.00;62537.16;5091864;28;19927;-84
2023/07/04 03:34:51;;;;;;;;;;;20.00;73.50;;;-151.14;100.00;62537.16;5092216;28;19926;-84
2023/07/04 03:37:19;;;;;;;;;;;20.00;73.40;;;-151.14;100.00;62537.16;5075497;28;20234;-84
2023/07/04 03:39:46;;;;;;;;;;;20.00;73.50;;;-151.14;100.00;62537.16;5075508;28;20135;-84
2023/07/04 03:42:16;;;;;;;;;;;20.00;73.60;;;-151.14;100.00;62537.16;5091715;28;19920;-84
2023/07/04 03:44:46;;;;;;;;;;;20.00;73.70;;;-151.14;100.00;62537.16;5075472;28;19927;-84
2023/07/04 03:47:16;;;;;;;;;;;20.00;74.70;;;-151.14;100.00;62537.16;5075334;28;19927;-84
2023/07/04 03:49:44;;;;;;;;;;;20.00;73.70;;;-151.14;100.00;62537.16;5093394;28;19927;-83
2023/07/04 03:52:14;;;;;;;;;;;20.10;74.00;;;-151.14;100.00;62537.16;5074561;28;19977;-84
2023/07/04 03:54:42;;;;;;;;;;;20.10;74.20;;;-151.14;100.00;62537.16;5092191;28;19926;-84
2023/07/04 03:57:10;;;;;;;;;;;20.10;74.00;;;-151.14;100.00;62537.16;5075238;28;19934;-84
2023/07/04 03:59:38;;;;;;;;;;;20.00;74.00;;;-151.14;100.00;62537.16;5092056;28;19926;-83
2023/07/04 04:02:05;;;;;;;;;;;20.00;73.90;;;-151.14;100.00;62537.16;5091307;28;19920;-84
2023/07/04 04:04:38;;;;;;;;;;;20.00;73.90;;;-151.14;100.00;62537.16;5093149;28;20200;-84
2023/07/04 04:07:07;;;;;;;;;;;20.10;74.00;;;-151.14;100.00;62537.16;5074978;28;20120;-84
2023/07/04 04:09:35;;;;;;;;;;;20.10;74.20;;;-151.14;100.00;62537.16;5092880;28;19934;-83
2023/07/04 04:12:04;;;;;;;;;;;20.10;74.20;;;-151.14;100.00;62537.16;5092207;28;20111;-83
2023/07/04 04:14:32;;;;;;;;;;;20.10;74.20;;;-151.14;100.00;62537.16;5075131;28;19920;-83
2023/07/04 04:17:00;;;;;;;;;;;20.10;74.20;;;-151.14;100.00;62537.16;5074819;28;20234;-84
2023/07/04 04:19:28;;;;;;;;;;;20.10;74.20;;;-151.14;100.00;62537.16;5075017;28;20234;-84
2023/07/04 04:21:57;;;;;;;;;;;20.20;74.20;;;-151.14;100.00;62537.16;5090719;28;19942;-83
2023/07/04 04:24:25;;;;;;;;;;;20.20;74.30;;;-151.14;100.00;62537.16;5091455;28;19926;-84
2023/07/04 04:26:53;;;;;;;;;;;20.20;74.10;;;-151.14;100.00;62537.16;5074186;28;19920;-83
2023/07/04 04:29:22;;;;;;;;;;;20.20;74.20;;;-151.14;100.00;62537.16;5091443;28;19920;-84
2023/07/04 04:31:50;;;;;;;;;;;20.20;74.20;;;-151.14;100.00;62537.16;5090712;28;19920;-83
2023/07/04 04:34:18;;;;;;;;;;;20.30;74.80;;;-151.14;100.00;62537.16;5091590;28;19934;-84
2023/07/04 04:36:46;;;;;;;;;;;20.30;74.70;;;-151.14;100.00;62537.16;5091090;28;19920;-84
2023/07/04 04:39:15;;;;;;;;;;;20.30;74.50;;;-151.14;100.00;62537.16;5095773;28;20220;-84
2023/07/04 04:41:43;;;;;;;;;;;20.30;74.70;;;-151.14;100.00;62537.16;5073962;28;19920;-84
2023/07/04 04:44:11;;;;;;;;;;;20.30;74.80;;;-151.14;100.00;62537.16;5074617;28;19946;-84
2023/07/04 04:46:40;;;;;;;;;;;20.40;74.80;;;-151.14;100.00;62537.16;5092361;28;19927;-84
2023/07/04 04:49:10;;;;;;;;;;;20.40;74.70;;;-151.14;100.00;62537.16;5091290;28;20212;-84
2023/07/04 04:51:40;;;;;;;;;;;20.40;74.90;;;-151.14;100.00;62537.16;5073723;28;19934;-84
2023/07/04 04:54:09;;;;;;;;;;;20.50;74.80;;;-151.14;100.00;62537.16;5091193;28;19927;-84
2023/07/04 04:56:40;;;;;;;;;;;20.50;74.70;;;-151.14;100.00;62537.16;5092236;28;19930;-84
2023/07/04 04:59:07;;;;;;;;;;;20.60;74.50;;;-151.14;100.00;62537.16;5092363;28;19934;-84
2023/07/04 05:01:36;;;;;;;;;;;20.60;74.50;;;-151.14;100.00;62537.16;5090519;28;19921;-84
2023/07/04 05:04:04;;;;;;;;;;;20.60;74.30;;;-151.14;100.00;62537.16;5074369;28;19926;-84
2023/07/04 05:06:32;;;;;;;;;;;20.60;74.40;;;-151.14;100.00;62537.16;5090766;28;19920;-84
2023/07/04 05:09:00;;;;;;;;;;;20.70;74.40;;;-151.14;100.00;62537.16;5090890;28;20208;-84
2023/07/04 05:11:28;;;;;;;;;;;20.70;74.30;;;-151.14;100.00;62537.16;5091397;28;19921;-84
2023/07/04 05:13:57;;;;;;;;;;;20.80;74.20;;;-151.14;100.00;62537.16;5091000;28;20243;-84
2023/07/04 05:16:25;;;;;;;;;;;20.80;74.20;;;-151.14;100.00;62537.16;5073749;28;19920;-84
2023/07/04 05:18:53;;;;;;;;;;;20.90;74.20;;;-151.14;100.00;62537.16;5091956;28;19920;-84
2023/07/04 05:21:21;;;;;;;;;;;20.90;74.00;;;-151.14;100.00;62537.16;5090044;28;19928;-84
2023/07/04 05:23:50;;;;;;;;;;;20.90;74.20;;;-151.14;100.00;62537.16;5090718;28;19927;-84
2023/07/04 05:26:20;;;;;;;;;;;20.90;74.20;;;-151.14;100.00;62537.16;5073865;28;20166;-84
2023/07/04 05:28:48;;;;;;;;;;;20.90;74.00;;;-151.14;100.00;62537.16;5091637;28;19938;-84
2023/07/04 05:31:18;;;;;;;;;;;21.00;74.30;;;-151.14;100.00;62537.16;5090106;28;19920;-84
2023/07/04 05:33:46;;;;;;;;;;;21.00;74.30;;;-151.14;100.00;62537.16;5073717;28;19920;-84
2023/07/04 05:36:15;;;;;;;;;;;21.00;74.30;;;-151.14;100.00;62537.16;5091565;28;19920;-83
2023/07/04 05:38:43;;;;;;;;;;;21.00;74.30;;;-151.14;100.00;62537.16;5089494;28;19920;-83
2023/07/04 05:41:11;;;;;;;;;;;21.00;74.40;;;-151.14;100.00;62537.16;5073182;28;19920;-84
2023/07/04 05:43:40;;;;;;;;;;;21.00;74.70;;;-151.14;100.00;62537.16;5090391;28;19920;-84
2023/07/04 05:46:08;;;;;;;;;;;21.00;74.70;;;-151.14;100.00;62537.16;5091565;28;19920;-84
2023/07/04 05:48:37;;;;;;;;;;;21.10;74.80;;;-151.14;100.00;62537.16;5091536;28;19921;-84
2023/07/04 05:51:07;;;;;;;;;;;21.10;74.40;;;-151.14;100.00;62537.16;5090172;28;20132;-84
2023/07/04 05:53:36;;;;;;;;;;;21.10;74.50;;;-151.14;100.00;62537.16;5090262;28;19927;-84
2023/07/04 05:56:07;;;;;;;;;;;21.10;74.70;;;-151.14;100.00;62537.16;5090317;28;19927;-84
2023/07/04 05:58:35;;;;;;;;;;;21.20;74.90;;;-151.14;100.00;62537.16;5090383;28;19920;-83
2023/07/04 06:01:07;;;;;;;;;;;21.10;74.60;;;-151.14;100.00;62537.16;5091239;28;19927;-83
2023/07/04 06:03:37;;;;;;;;;;;21.20;74.90;;;-151.14;100.00;62537.16;5091279;28;19927;-83
2023/07/04 06:06:05;;;;;;;;;;;21.20;75.00;;;-151.14;100.00;62537.16;5090060;28;20254;-84
2023/07/04 06:08:33;;;;;;;;;;;21.20;74.60;;;-151.14;100.00;62537.16;5073302;28;19920;-83
2023/07/04 06:11:01;;;;;;;;;;;21.30;74.50;;;-151.14;100.00;62537.16;5089983;28;19920;-83
2023/07/04 06:13:29;;;;;;;;;;;21.30;74.30;;;-151.14;100.00;62537.16;5089372;28;19920;-83
2023/07/04 06:15:57;;;;;;;;;;;21.30;74.30;;;-151.14;100.00;62537.16;5091058;28;19920;-83
2023/07/04 06:18:25;;;;;;;;;;;21.30;74.20;;;-151.14;100.00;62537.16;5073184;28;19920;-83
2023/07/04 06:20:54;;;;;;;;;;;21.40;74.10;;;-151.14;100.00;62537.16;5090169;28;20213;-83
2023/07/04 06:23:23;;;;;;;;;;;21.40;74.00;;;-151.14;100.00;62537.16;5089207;28;19921;-83
2023/07/04 06:25:56;;;;;;;;;;;21.50;74.00;;;-151.14;100.00;62537.16;5090009;28;20119;-83
2023/07/04 06:28:24;;;;;;;;;;;21.50;73.80;;;-151.14;100.00;62537.16;5089846;28;19920;-83
2023/07/04 06:30:52;;;;;;;;;;;21.50;73.70;;;-151.14;100.00;62537.16;5090014;28;19926;-83
2023/07/04 06:33:20;;;;;;;;;;;21.50;73.60;;;-151.14;100.00;62537.16;5072488;28;19943;-84
2023/07/04 06:35:48;;;;;;;;;;;21.50;73.50;;;-151.14;100.00;62537.16;5072812;28;19934;-84
2023/07/04 06:38:17;;;;;;;;;;;21.60;73.60;;;-151.14;100.00;62537.16;5090868;28;19920;-84
2023/07/04 06:40:57;;;;;;;;;;;21.60;73.50;;;-151.14;100.00;62537.16;5089775;28;19926;-84
2023/07/04 06:43:24;;;;;;;;;;;21.60;73.40;;;-151.14;100.00;62537.16;5072294;28;19920;-84
2023/07/04 06:45:52;;;;;;;;;;;21.60;73.30;;;-151.14;100.00;62537.16;5089746;28;19942;-84
2023/07/04 06:48:21;;;;;;;;;;;21.70;73.50;;;-151.14;100.00;62537.16;5089487;28;19926;-84
2023/07/04 06:50:58;;;;;;;;;;;21.70;73.40;;;-151.14;100.00;62537.16;5092070;28;19920;-84
2023/07/04 06:53:28;;;;;;;;;;;21.70;73.30;;;-151.14;100.00;62537.16;5092614;28;20208;-84
2023/07/04 06:56:04;;;;;;;;;;;21.70;73.20;;;-151.14;100.00;62537.16;5093061;28;19920;-84
2023/07/04 06:58:32;;;;;;;;;;;21.80;73.00;;;-151.14;100.00;62537.16;5093049;28;19921;-85
2023/07/04 07:01:02;;;;;;;;;;;21.80;72.90;;;-151.14;100.00;62537.16;5076182;28;19927;-84
2023/07/04 07:03:29;;;;;;;;;;;21.80;72.70;;;-151.14;100.00;62537.16;5093502;28;19926;-84
2023/07/04 07:05:57;;;;;;;;;;;21.80;72.70;;;-151.14;100.00;62537.16;5076041;28;19927;-84
2023/07/04 07:08:25;;;;;;;;;;;21.90;72.80;;;-151.14;100.00;62537.16;5076073;28;20212;-84
2023/07/04 07:10:57;;;;;;;;;;;21.90;72.70;;;-151.14;100.00;62537.16;5076214;28;20236;-85
2023/07/04 07:13:25;;;;;;;;;;;21.90;72.60;;;-151.14;100.00;62537.16;5093257;28;19927;-84
2023/07/04 07:15:53;;;;;;;;;;;21.90;72.40;;;-151.14;100.00;62537.16;5076061;28;19920;-84
2023/07/04 07:18:20;;;;;;;;;;;21.90;72.40;;;-151.14;100.00;62537.16;5092730;28;19920;-85
2023/07/04 07:20:48;;;;;;;;;;;22.00;72.70;;;-151.14;100.00;62537.16;5092547;28;20212;-84
2023/07/04 07:23:16;;;;;;;;;;;22.00;72.60;;;-151.14;100.00;62537.16;5091814;28;19920;-83
2023/07/04 07:25:44;;;;;;;;;;;22.00;72.80;;;-151.14;100.00;62537.16;5092476;28;19947;-84
2023/07/04 07:28:13;;;;;;;;;;;22.00;73.00;;;-151.14;100.00;62537.16;5090261;28;19920;-84
2023/07/04 07:30:41;;;;;;;;;;;22.00;73.00;;;-151.14;100.00;62537.16;5092427;28;19985;-84
2023/07/04 07:33:09;;;;;;;;;;;22.10;73.00;;;-151.14;100.00;62537.16;5075112;28;19926;-84
2023/07/04 07:35:37;;;;;;;;;;;22.10;73.20;;;-151.14;100.00;62537.16;5092327;28;20226;-84
2023/07/04 07:38:05;;;;;;;;;;;22.10;72.80;;;-151.14;100.00;62537.16;5075567;28;19920;-83
2023/07/04 07:40:32;;;;;;;;;;;22.10;73.30;;;-151.14;100.00;62537.16;5092252;28;19920;-83
2023/07/04 07:43:00;;;;;;;;;;;22.10;73.20;;;-151.14;100.00;62537.16;5091702;28;19927;-84
2023/07/04 07:45:30;;;;;;;;;;;22.10;73.20;;;-151.14;100.00;62537.16;5109020;28;19920;-84
2023/07/04 07:47:58;;;;;;;;;;;22.10;73.50;;;-151.14;100.00;62537.16;5102013;28;20216;-84
2023/07/04 07:50:25;;;;;;;;;;;22.10;73.40;;;-151.14;100.00;62537.16;5075362;28;19921;-84
2023/07/04 07:52:53;;;;;;;;;;;22.20;73.30;;;-151.14;100.00;62537.16;5091418;28;19926;-84
2023/07/04 07:55:21;;;;;;;;;;;22.20;73.20;;;-151.14;100.00;62537.16;5092259;28;19920;-84
2023/07/04 07:57:49;;;;;;;;;;;22.20;73.30;;;-151.14;100.00;62537.16;5092151;28;19920;-84
2023/07/04 08:00:18;;;;;;;;;;;22.20;73.80;;;-151.14;100.00;62537.16;5093455;28;19934;-85
2023/07/04 08:02:47;;;;;;;;;;;22.20;73.30;;;-151.14;100.00;62537.16;5093118;28;19920;-85
2023/07/04 08:05:15;;;;;;;;;;;22.20;73.60;;;-151.14;100.00;62537.16;5093611;28;19920;-85
2023/07/04 08:07:42;;;;;;;;;;;22.20;73.50;;;-151.14;100.00;62537.16;5093404;28;19927;-84
2023/07/04 08:10:10;;;;;;;;;;;22.20;73.60;;;-151.14;100.00;62537.16;5093653;28;19920;-85
2023/07/04 08:12:38;;;;;;;;;;;22.20;73.60;;;-151.14;100.00;62537.16;5076025;28;19920;-85
2023/07/04 08:15:08;;;;;;;;;;;22.20;73.80;;;-151.14;100.00;62537.16;5093199;28;19926;-84
2023/07/04 08:17:36;;;;;;;;;;;22.20;73.60;;;-151.14;100.00;62537.16;5093291;28;19939;-84
2023/07/04 08:20:07;;;;;;;;;;;22.30;73.60;;;-151.14;100.00;62537.16;5093130;28;20276;-85
2023/07/04 08:22:35;;;;;;;;;;;22.30;73.90;;;-151.14;100.00;62537.16;5092638;28;19920;-84
2023/07/04 08:25:05;;;;;;;;;;;22.20;73.70;;;-151.14;100.00;62537.16;5093053;28;19920;-85
2023/07/04 08:27:33;;;;;;;;;;;22.30;74.60;;;-151.14;100.00;62537.16;5093284;28;20139;-85
2023/07/04 08:30:01;;;;;;;;;;;22.30;74.50;;;-151.14;100.00;62537.16;5093261;28;19920;-85
2023/07/04 08:32:29;;;;;;;;;;;22.30;74.40;;;-151.14;100.00;62537.16;5092460;28;19920;-85
2023/07/04 08:34:57;;;;;;;;;;;22.30;74.50;;;-151.14;100.00;62537.16;5092841;28;20115;-85
2023/07/04 08:37:26;;;;;;;;;;;22.30;74.70;;;-151.14;100.00;62537.16;5093361;28;19926;-85
2023/07/04 08:39:55;;;;;;;;;;;22.30;74.40;;;-151.14;100.00;62537.16;5076633;28;20230;-85
2023/07/04 08:42:23;;;;;;;;;;;22.30;74.00;;;-151.14;100.00;62537.16;5075756;28;19927;-85
2023/07/04 08:44:52;;;;;;;;;;;22.40;73.90;;;-151.14;100.00;62537.16;5093015;28;19966;-85
2023/07/04 08:47:25;;;;;;;;;;;22.40;73.60;;;-151.14;100.00;62537.16;5093136;28;19920;-85
2023/07/04 08:49:54;;;;;;;;;;;22.40;73.60;;;-151.14;100.00;62537.16;5076376;28;19921;-85
2023/07/04 08:52:24;;;;;;;;;;;22.40;73.20;;;-151.14;100.00;62537.16;5075609;28;19950;-84
2023/07/04 08:54:54;;;;;;;;;;;22.40;73.10;;;-151.14;100.00;62537.16;5076093;28;19920;-85
2023/07/04 08:57:28;;;;;;;;;;;22.40;73.30;;;-151.14;100.00;62537.16;5092859;28;19920;-84
2023/07/04 08:59:58;;;;;;;;;;;22.40;73.10;;;-151.14;100.00;62537.16;5093269;28;19920;-84
2023/07/04 09:02:58;;;;;;;;;;;22.40;73.00;;;-151.14;100.00;62537.16;5092237;28;19926;-84
2023/07/04 09:05:30;;;;;;;;;;;22.40;73.80;;;-151.14;100.00;62537.16;5093136;28;19927;-84
2023/07/04 09:08:01;;;;;;;;;;;22.40;73.10;;;-151.14;100.00;62537.16;5076197;28;19920;-85
2023/07/04 09:10:33;;;;;;;;;;;22.40;73.50;;;-151.14;100.00;62537.16;5092737;28;20230;-85
2023/07/04 09:13:01;;;;;;;;;;;22.30;73.40;;;-151.14;100.00;62537.16;5109626;28;19926;-84
2023/07/04 09:15:31;;;;;;;;;;;22.40;73.10;;;-151.14;100.00;62537.16;5092768;28;19920;-85
2023/07/04 09:18:05;;;;;;;;;;;22.30;73.20;;;-151.14;100.00;62537.16;5092751;28;19920;-84
2023/07/04 09:20:34;;;;;;;;;;;22.30;73.00;;;-151.14;100.00;62537.16;5093085;28;19920;-85
2023/07/04 09:23:04;;;;;;;;;;;22.40;72.90;;;-151.14;100.00;62537.16;5091984;28;19920;-84
2023/07/04 09:25:34;;;;;;;;;;;22.30;73.60;;;-151.14;100.00;62537.16;5075793;28;19920;-85
2023/07/04 09:28:01;;;;;;;;;;;22.30;72.70;;;-151.14;100.00;62537.16;5092371;28;19926;-84
2023/07/04 09:30:29;;;;;;;;;;;22.30;72.70;;;-151.14;100.00;62537.16;5075620;28;19927;-84
2023/07/04 09:32:57;;;;;;;;;;;22.20;72.80;;;-151.14;100.00;62537.16;5092078;28;19920;-85
2023/07/04 09:35:25;;;;;;;;;;;22.30;73.00;;;-151.14;100.00;62537.16;5093107;28;19927;-85
2023/07/04 09:37:57;;;;;;;;;;;22.30;73.60;;;-151.14;100.00;62537.16;5093093;28;19920;-84
2023/07/04 09:40:41;;;;;;;;;;;22.30;74.00;;;-151.14;100.00;62537.16;5090281;28;20216;-85
2023/07/04 09:43:09;;;;;;;;;;;22.20;74.10;;;-151.14;100.00;62537.16;5091968;28;19921;-85
2023/07/04 09:45:37;;;;;;;;;;;22.30;74.40;;;-151.14;100.00;62537.16;5075343;28;19931;-84
2023/07/04 09:48:07;;;;;;;;;;;22.30;74.20;;;-151.14;100.00;62537.16;5092271;28;19920;-84
2023/07/04 09:50:37;;;;;;;;;;;22.40;73.90;;;-151.14;100.00;62537.16;5075296;28;19920;-85
2023/07/04 09:53:07;;;;;;;;;;;22.30;73.10;;;-151.14;100.00;62537.16;5093575;28;19920;-85
2023/07/04 09:55:37;;;;;;;;;;;22.40;73.80;;;-151.14;100.00;62537.16;5074671;28;19920;-85
2023/07/04 09:58:20;;;;;;;;;;;22.40;74.10;;;-151.14;100.00;62537.16;5109738;28;20127;-84
2023/07/04 10:01:01;;;;;;;;;;;22.40;74.10;;;-151.14;100.00;62537.16;5075692;28;19934;-85
2023/07/04 10:03:29;;;;;;;;;;;22.50;74.40;;;-151.14;100.00;62537.16;5075371;28;19920;-85
2023/07/04 10:05:57;;;;;;;;;;;22.50;74.10;;;-151.14;100.00;62537.16;5109102;28;20325;-85
2023/07/04 10:08:25;;;;;;;;;;;22.50;74.00;;;-151.14;100.00;62537.16;5092770;28;19920;-84
2023/07/04 10:10:53;;;;;;;;;;;22.60;74.10;;;-151.14;100.00;62537.16;5077998;28;19920;-85
2023/07/04 10:13:24;;;;;;;;;;;22.60;73.70;;;-151.14;100.00;62537.16;5074519;28;19920;-85
2023/07/04 10:15:52;;;;;;;;;;;22.60;73.80;;;-151.14;100.00;62537.16;5075047;28;19942;-85
2023/07/04 10:18:25;;;;;;;;;;;22.60;73.20;;;-151.14;100.00;62537.16;5092620;28;20139;-85
2023/07/04 10:20:54;;;;;;;;;;;22.60;73.20;;;-151.14;100.00;62537.16;5092013;28;20364;-85
2023/07/04 10:23:22;;;;;;;;;;;22.50;73.30;;;-151.14;100.00;62537.16;5075200;28;19920;-85
2023/07/04 10:25:50;;;;;;;;;;;22.50;73.60;;;-151.14;100.00;62537.16;5095507;28;20136;-84
2023/07/04 10:28:22;;;;;;;;;;;22.60;73.70;;;-151.14;100.00;62537.16;5095766;28;19920;-85
2023/07/04 10:30:52;;;;;;;;;;;22.60;73.70;;;-151.14;100.00;62537.16;5112272;28;19920;-85
2023/07/04 10:33:22;;;;;;;;;;;22.60;73.80;;;-151.14;100.00;62537.16;5094617;28;19920;-84
2023/07/04 10:35:50;;;;;;;;;;;22.50;73.70;;;-151.14;100.00;62537.16;5095173;28;19926;-84
2023/07/04 10:38:24;;;;;;;;;;;22.50;73.60;;;-151.14;100.00;62537.16;5078860;28;19939;-85
2023/07/04 10:40:53;;;;;;;;;;;22.50;73.50;;;-151.14;100.00;62537.16;5079062;28;19927;-85
2023/07/04 10:43:26;;;;;;;;;;;22.50;73.60;;;-151.14;100.00;62537.16;5078559;28;19920;-84
2023/07/04 10:45:54;;;;;;;;;;;22.50;73.70;;;-151.14;100.00;62537.16;5095386;28;19920;-84
2023/07/04 10:48:22;;;;;;;;;;;22.50;73.70;;;-151.14;100.00;62537.16;5096542;28;20250;-85
2023/07/04 10:50:52;;;;;;;;;;;22.50;74.50;;;-151.14;100.00;62537.16;5094801;28;20282;-85
2023/07/04 10:53:20;;;;;;;;;;;22.50;73.60;;;-151.14;100.00;62537.16;5077739;28;19920;-85
2023/07/04 10:55:50;;;;;;;;;;;22.50;73.40;;;-151.14;100.00;62537.16;5077927;28;19927;-85
2023/07/04 10:58:20;;;;;;;;;;;22.50;73.40;;;-151.14;100.00;62537.16;5112155;28;19920;-85
2023/07/04 11:00:51;;;;;;;;;;;22.50;73.30;;;-151.14;100.00;62537.16;5085203;28;20120;-85
2023/07/04 11:03:25;;;;;;;;;;;22.50;73.40;;;-151.14;100.00;62537.16;5094885;28;19920;-85